BFT9FP DAAG-EDDM
Flight info
| Callsign | BFT9FP |
|---|---|
| Flight time | N/A |
| Altitude | 35000 |
| Route | BOURI1C BOURI UM986 REQIN DCT BUKID DCT NEGAT DCT OMEDA DCT RAPUR DCT TORTU DCT OLETI DCT UNITA DCT OTMUV DCT KOXUD DCT NESTI DCT TAGIP DCT GUNGO DCT TISAX T102 NINUR T101 BETOS BETOS1A |
| Aircraft | A321/M-SDE3FGHIRWY/LB1 |
Departure
| Time | 2026-04-28 09:06 |
|---|---|
| Airport | Houari Boumediene Airport (DAAG) |
Arrival
| Time | N/A |
|---|---|
| Airport | Munich Airport (EDDM) |
| Time | Latitude | Longitude | Altitude | Speed | Heading |
|---|---|---|---|---|---|
| 2026-04-28 08:31 | 36.69724 | 3.20464 | 92 ft | 0 kts | 72° |
| 2026-04-28 08:58 | 36.69722 | 3.20459 | 91 ft | 3 kts | 73° |
| 2026-04-28 08:59 | 36.69717 | 3.20427 | 89 ft | 4 kts | 88° |
| 2026-04-28 08:59 | 36.69719 | 3.20394 | 89 ft | 4 kts | 112° |
| 2026-04-28 08:59 | 36.69734 | 3.20367 | 92 ft | 4 kts | 144° |
| 2026-04-28 08:59 | 36.69753 | 3.20355 | 91 ft | 1 kts | 168° |
| 2026-04-28 09:00 | 36.69754 | 3.20355 | 88 ft | 0 kts | 168° |
| 2026-04-28 09:01 | 36.69744 | 3.20358 | 89 ft | 6 kts | 168° |
| 2026-04-28 09:02 | 36.69678 | 3.20367 | 89 ft | 10 kts | 179° |
| 2026-04-28 09:02 | 36.69608 | 3.20365 | 88 ft | 10 kts | 182° |
| 2026-04-28 09:02 | 36.69535 | 3.20362 | 88 ft | 11 kts | 182° |
| 2026-04-28 09:02 | 36.69465 | 3.20382 | 90 ft | 10 kts | 129° |
| 2026-04-28 09:03 | 36.69448 | 3.20473 | 91 ft | 12 kts | 91° |
| 2026-04-28 09:03 | 36.69445 | 3.20581 | 88 ft | 13 kts | 92° |
| 2026-04-28 09:03 | 36.69442 | 3.20701 | 88 ft | 15 kts | 92° |
| 2026-04-28 09:03 | 36.69425 | 3.20829 | 89 ft | 16 kts | 122° |
| 2026-04-28 09:04 | 36.69386 | 3.20956 | 88 ft | 17 kts | 91° |
| 2026-04-28 09:04 | 36.69385 | 3.21105 | 88 ft | 18 kts | 90° |
| 2026-04-28 09:04 | 36.69384 | 3.21267 | 88 ft | 19 kts | 90° |
| 2026-04-28 09:04 | 36.69383 | 3.21441 | 88 ft | 21 kts | 91° |
| 2026-04-28 09:05 | 36.69381 | 3.21625 | 91 ft | 21 kts | 90° |
| 2026-04-28 09:05 | 36.69381 | 3.21807 | 91 ft | 21 kts | 90° |
| 2026-04-28 09:05 | 36.69384 | 3.21985 | 87 ft | 20 kts | 79° |
| 2026-04-28 09:05 | 36.69468 | 3.22152 | 87 ft | 37 kts | 53° |
| 2026-04-28 09:06 | 36.69761 | 3.22632 | 88 ft | 101 kts | 52° |
| 2026-04-28 09:06 | 36.70292 | 3.23501 | 89 ft | 149 kts | 53° |
| 2026-04-28 09:06 | 36.70973 | 3.24650 | 365 ft | 165 kts | 51° |
| 2026-04-28 09:06 | 36.71920 | 3.25420 | 858 ft | 177 kts | 16° |
| 2026-04-28 09:07 | 36.73177 | 3.25398 | 1167 ft | 189 kts | 347° |
| 2026-04-28 09:07 | 36.74494 | 3.24982 | 1466 ft | 202 kts | 346° |
| 2026-04-28 09:07 | 36.75874 | 3.24522 | 1776 ft | 210 kts | 351° |
| 2026-04-28 09:07 | 36.77342 | 3.24682 | 2029 ft | 215 kts | 18° |
| 2026-04-28 09:08 | 36.78760 | 3.25303 | 2347 ft | 220 kts | 21° |
| 2026-04-28 09:08 | 36.80243 | 3.25930 | 2612 ft | 230 kts | 20° |
| 2026-04-28 09:08 | 36.81798 | 3.26577 | 2877 ft | 242 kts | 19° |
| 2026-04-28 09:08 | 36.83467 | 3.27276 | 3055 ft | 266 kts | 19° |
| 2026-04-28 09:09 | 36.85263 | 3.28040 | 3414 ft | 278 kts | 19° |
| 2026-04-28 09:09 | 36.87115 | 3.28829 | 3685 ft | 283 kts | 19° |
| 2026-04-28 09:09 | 36.88956 | 3.29614 | 4591 ft | 278 kts | 18° |
| 2026-04-28 09:09 | 36.90803 | 3.30372 | 5296 ft | 280 kts | 17° |
| 2026-04-28 09:10 | 36.92679 | 3.31117 | 5975 ft | 284 kts | 17° |
| 2026-04-28 09:10 | 36.94576 | 3.31867 | 6652 ft | 288 kts | 17° |
| 2026-04-28 09:10 | 36.96496 | 3.32635 | 7312 ft | 291 kts | 17° |
| 2026-04-28 09:10 | 36.98434 | 3.33420 | 7979 ft | 294 kts | 14° |
| 2026-04-28 09:11 | 37.00396 | 3.34221 | 8623 ft | 298 kts | 15° |
| 2026-04-28 09:11 | 37.02372 | 3.35033 | 9339 ft | 299 kts | 15° |
| 2026-04-28 09:11 | 37.04351 | 3.35853 | 10013 ft | 302 kts | 15° |
| 2026-04-28 09:11 | 37.06407 | 3.36702 | 10226 ft | 321 kts | 15° |
| 2026-04-28 09:12 | 37.08599 | 3.37603 | 10347 ft | 342 kts | 15° |
| 2026-04-28 09:12 | 37.10926 | 3.38561 | 10470 ft | 362 kts | 15° |
| 2026-04-28 09:12 | 37.13353 | 3.39653 | 10604 ft | 381 kts | 22° |
| 2026-04-28 09:12 | 37.15686 | 3.41338 | 10969 ft | 393 kts | 33° |
| 2026-04-28 09:13 | 37.17764 | 3.43612 | 11466 ft | 400 kts | 45° |
| 2026-04-28 09:13 | 37.19473 | 3.46381 | 12050 ft | 405 kts | 56° |
| 2026-04-28 09:13 | 37.21021 | 3.49359 | 12592 ft | 409 kts | 56° |
| 2026-04-28 09:13 | 37.22578 | 3.52357 | 13184 ft | 411 kts | 56° |
| 2026-04-28 09:14 | 37.24145 | 3.55376 | 13713 ft | 415 kts | 56° |
| 2026-04-28 09:14 | 37.25721 | 3.58418 | 14214 ft | 417 kts | 56° |
| 2026-04-28 09:14 | 37.27293 | 3.61447 | 14659 ft | 421 kts | 56° |
| 2026-04-28 09:14 | 37.28895 | 3.64536 | 15159 ft | 423 kts | 56° |
| 2026-04-28 09:15 | 37.30509 | 3.67657 | 15588 ft | 427 kts | 57° |
| 2026-04-28 09:15 | 37.32123 | 3.70790 | 16099 ft | 429 kts | 57° |
| 2026-04-28 09:15 | 37.33748 | 3.73949 | 16534 ft | 432 kts | 57° |
| 2026-04-28 09:15 | 37.35386 | 3.77129 | 17022 ft | 434 kts | 57° |
| 2026-04-28 09:16 | 37.37036 | 3.80328 | 17449 ft | 438 kts | 57° |
| 2026-04-28 09:16 | 37.38695 | 3.83547 | 17973 ft | 439 kts | 57° |
| 2026-04-28 09:16 | 37.40357 | 3.86774 | 18381 ft | 442 kts | 57° |
| 2026-04-28 09:16 | 37.42029 | 3.90026 | 18803 ft | 443 kts | 58° |
| 2026-04-28 09:17 | 37.43704 | 3.93289 | 19192 ft | 446 kts | 58° |
| 2026-04-28 09:17 | 37.45389 | 3.96577 | 19614 ft | 447 kts | 58° |
| 2026-04-28 09:17 | 37.47078 | 3.99876 | 19979 ft | 450 kts | 58° |
| 2026-04-28 09:17 | 37.48775 | 4.03198 | 20389 ft | 452 kts | 58° |
| 2026-04-28 09:18 | 37.50476 | 4.06535 | 20746 ft | 455 kts | 58° |
| 2026-04-28 09:18 | 37.52186 | 4.09895 | 21153 ft | 456 kts | 58° |